sensor_id;sensor_type;location;lat;lon;timestamp;pressure;altitude;pressure_sealevel;temperature;humidity
26823;BME280;14852;51.910;8.878;2022-08-19T00:01:46;99482.09;;;24.11;52.17
26823;BME280;14852;51.910;8.878;2022-08-19T00:04:15;99485.72;;;24.10;51.75
26823;BME280;14852;51.910;8.878;2022-08-19T00:06:44;99491.03;;;24.10;51.86
26823;BME280;14852;51.910;8.878;2022-08-19T00:09:14;99492.88;;;24.09;51.99
26823;BME280;14852;51.910;8.878;2022-08-19T00:11:40;99487.06;;;24.06;52.52
26823;BME280;14852;51.910;8.878;2022-08-19T00:14:08;99480.28;;;24.03;52.11
26823;BME280;14852;51.910;8.878;2022-08-19T00:16:37;99483.09;;;24.02;52.42
26823;BME280;14852;51.910;8.878;2022-08-19T00:19:05;99491.88;;;24.02;51.88
26823;BME280;14852;51.910;8.878;2022-08-19T00:21:30;99488.56;;;24.00;52.21
26823;BME280;14852;51.910;8.878;2022-08-19T00:23:57;99489.09;;;23.96;52.59
26823;BME280;14852;51.910;8.878;2022-08-19T00:26:26;99482.34;;;23.85;52.54
26823;BME280;14852;51.910;8.878;2022-08-19T00:28:52;99490.31;;;23.77;52.72
26823;BME280;14852;51.910;8.878;2022-08-19T00:31:18;99490.53;;;23.67;53.12
26823;BME280;14852;51.910;8.878;2022-08-19T00:33:44;99491.56;;;23.58;53.67
26823;BME280;14852;51.910;8.878;2022-08-19T00:36:11;99485.28;;;23.51;53.37
26823;BME280;14852;51.910;8.878;2022-08-19T00:38:38;99485.59;;;23.48;53.63
26823;BME280;14852;51.910;8.878;2022-08-19T00:41:12;99488.22;;;23.48;53.64
26823;BME280;14852;51.910;8.878;2022-08-19T00:43:38;99489.88;;;23.49;53.08
26823;BME280;14852;51.910;8.878;2022-08-19T00:46:04;99485.28;;;23.51;53.52
26823;BME280;14852;51.910;8.878;2022-08-19T00:48:32;99471.50;;;23.47;53.20
26823;BME280;14852;51.910;8.878;2022-08-19T00:53:29;99468.34;;;23.44;53.59
26823;BME280;14852;51.910;8.878;2022-08-19T00:55:58;99482.47;;;23.36;53.70
26823;BME280;14852;51.910;8.878;2022-08-19T00:58:30;99470.34;;;23.34;53.71
26823;BME280;14852;51.910;8.878;2022-08-19T01:00:57;99461.75;;;23.32;53.63
26823;BME280;14852;51.910;8.878;2022-08-19T01:03:23;99453.47;;;23.27;53.85
26823;BME280;14852;51.910;8.878;2022-08-19T01:05:50;99451.31;;;23.22;53.94
26823;BME280;14852;51.910;8.878;2022-08-19T01:08:19;99451.19;;;23.16;54.07
26823;BME280;14852;51.910;8.878;2022-08-19T01:10:49;99444.56;;;23.11;54.12
26823;BME280;14852;51.910;8.878;2022-08-19T01:13:19;99444.25;;;23.06;54.51
26823;BME280;14852;51.910;8.878;2022-08-19T01:15:54;99443.56;;;23.04;54.09
26823;BME280;14852;51.910;8.878;2022-08-19T01:18:21;99441.25;;;23.01;54.31
26823;BME280;14852;51.910;8.878;2022-08-19T01:20:49;99431.81;;;22.99;54.00
26823;BME280;14852;51.910;8.878;2022-08-19T01:23:15;99436.28;;;22.98;54.65
26823;BME280;14852;51.910;8.878;2022-08-19T01:25:49;99438.09;;;22.98;54.21
26823;BME280;14852;51.910;8.878;2022-08-19T01:28:23;99434.00;;;22.95;54.43
26823;BME280;14852;51.910;8.878;2022-08-19T01:30:51;99432.81;;;22.90;54.68
26823;BME280;14852;51.910;8.878;2022-08-19T01:33:18;99428.00;;;22.85;54.76
26823;BME280;14852;51.910;8.878;2022-08-19T01:35:45;99424.22;;;22.80;55.01
26823;BME280;14852;51.910;8.878;2022-08-19T01:38:25;99420.91;;;22.78;54.87
26823;BME280;14852;51.910;8.878;2022-08-19T01:40:52;99419.72;;;22.72;55.07
26823;BME280;14852;51.910;8.878;2022-08-19T01:43:18;99418.41;;;22.68;55.00
26823;BME280;14852;51.910;8.878;2022-08-19T01:45:45;99417.88;;;22.64;55.40
26823;BME280;14852;51.910;8.878;2022-08-19T01:48:12;99426.19;;;22.61;55.51
26823;BME280;14852;51.910;8.878;2022-08-19T01:50:38;99423.88;;;22.58;55.24
26823;BME280;14852;51.910;8.878;2022-08-19T01:53:09;99428.16;;;22.59;55.05
26823;BME280;14852;51.910;8.878;2022-08-19T01:55:39;99424.03;;;22.57;55.08
26823;BME280;14852;51.910;8.878;2022-08-19T01:58:06;99429.63;;;22.54;55.27
26823;BME280;14852;51.910;8.878;2022-08-19T02:00:34;99437.59;;;22.54;55.22
26823;BME280;14852;51.910;8.878;2022-08-19T02:02:59;99441.72;;;22.48;55.16
26823;BME280;14852;51.910;8.878;2022-08-19T02:05:26;99439.56;;;22.35;55.66
26823;BME280;14852;51.910;8.878;2022-08-19T02:07:58;99439.22;;;22.30;55.59
26823;BME280;14852;51.910;8.878;2022-08-19T02:10:24;99437.06;;;22.26;55.84
26823;BME280;14852;51.910;8.878;2022-08-19T02:12:50;99438.69;;;22.27;55.95
26823;BME280;14852;51.910;8.878;2022-08-19T02:15:18;99435.72;;;22.30;55.80
26823;BME280;14852;51.910;8.878;2022-08-19T02:17:45;99434.06;;;22.29;55.87
26823;BME280;14852;51.910;8.878;2022-08-19T02:20:12;99422.66;;;22.28;55.63
26823;BME280;14852;51.910;8.878;2022-08-19T02:22:39;99419.38;;;22.26;55.85
26823;BME280;14852;51.910;8.878;2022-08-19T02:25:12;99416.06;;;22.24;56.09
26823;BME280;14852;51.910;8.878;2022-08-19T02:27:39;99419.19;;;22.20;56.12
26823;BME280;14852;51.910;8.878;2022-08-19T02:30:08;99403.63;;;22.17;56.22
26823;BME280;14852;51.910;8.878;2022-08-19T02:32:35;99409.41;;;22.12;55.87
26823;BME280;14852;51.910;8.878;2022-08-19T02:35:01;99404.44;;;22.09;56.28
26823;BME280;14852;51.910;8.878;2022-08-19T02:37:27;99412.69;;;22.06;56.29
26823;BME280;14852;51.910;8.878;2022-08-19T02:40:11;99417.50;;;22.02;56.30
26823;BME280;14852;51.910;8.878;2022-08-19T02:42:38;99423.94;;;22.00;56.49
26823;BME280;14852;51.910;8.878;2022-08-19T02:45:04;99422.56;;;21.96;56.14
26823;BME280;14852;51.910;8.878;2022-08-19T02:47:31;99429.19;;;21.92;56.67
26823;BME280;14852;51.910;8.878;2022-08-19T02:49:56;99431.81;;;21.92;56.23
26823;BME280;14852;51.910;8.878;2022-08-19T02:52:22;99422.22;;;21.91;56.41
26823;BME280;14852;51.910;8.878;2022-08-19T02:54:48;99429.50;;;21.89;56.56
26823;BME280;14852;51.910;8.878;2022-08-19T02:57:15;99418.53;;;21.76;56.47
26823;BME280;14852;51.910;8.878;2022-08-19T02:59:40;99417.97;;;21.64;56.97
26823;BME280;14852;51.910;8.878;2022-08-19T03:02:06;99424.72;;;21.58;56.89
26823;BME280;14852;51.910;8.878;2022-08-19T03:04:32;99426.34;;;21.51;56.89
26823;BME280;14852;51.910;8.878;2022-08-19T03:06:57;99433.13;;;21.46;57.37
26823;BME280;14852;51.910;8.878;2022-08-19T03:09:23;99439.69;;;21.42;57.18
26823;BME280;14852;51.910;8.878;2022-08-19T03:11:49;99429.78;;;21.44;57.13
26823;BME280;14852;51.910;8.878;2022-08-19T03:14:15;99426.16;;;21.45;57.39
26823;BME280;14852;51.910;8.878;2022-08-19T03:16:47;99423.19;;;21.48;57.09
26823;BME280;14852;51.910;8.878;2022-08-19T03:19:15;99423.53;;;21.45;57.39
26823;BME280;14852;51.910;8.878;2022-08-19T03:21:43;99423.69;;;21.43;57.22
26823;BME280;14852;51.910;8.878;2022-08-19T03:24:10;99426.47;;;21.42;57.08
26823;BME280;14852;51.910;8.878;2022-08-19T03:26:44;99421.03;;;21.43;57.36
26823;BME280;14852;51.910;8.878;2022-08-19T03:29:11;99433.72;;;21.40;57.02
26823;BME280;14852;51.910;8.878;2022-08-19T03:31:39;99420.50;;;21.40;56.89
26823;BME280;14852;51.910;8.878;2022-08-19T03:34:06;99422.47;;;21.38;57.27
26823;BME280;14852;51.910;8.878;2022-08-19T03:36:32;99420.97;;;21.35;57.27
26823;BME280;14852;51.910;8.878;2022-08-19T03:39:00;99421.31;;;21.32;57.12
26823;BME280;14852;51.910;8.878;2022-08-19T03:41:32;99420.78;;;21.28;57.23
26823;BME280;14852;51.910;8.878;2022-08-19T03:43:58;99419.75;;;21.21;57.40
26823;BME280;14852;51.910;8.878;2022-08-19T03:46:31;99426.03;;;21.20;57.44
26823;BME280;14852;51.910;8.878;2022-08-19T03:48:59;99430.75;;;21.17;57.41
26823;BME280;14852;51.910;8.878;2022-08-19T03:51:30;99439.47;;;21.09;57.60
26823;BME280;14852;51.910;8.878;2022-08-19T03:53:59;99450.94;;;21.00;57.57
26823;BME280;14852;51.910;8.878;2022-08-19T03:56:27;99438.16;;;20.87;58.31
26823;BME280;14852;51.910;8.878;2022-08-19T03:58:57;99442.22;;;20.82;58.49
26823;BME280;14852;51.910;8.878;2022-08-19T04:01:28;99443.75;;;20.84;57.83
26823;BME280;14852;51.910;8.878;2022-08-19T04:03:56;99453.16;;;20.87;57.75
26823;BME280;14852;51.910;8.878;2022-08-19T04:06:28;99451.66;;;20.84;58.09
26823;BME280;14852;51.910;8.878;2022-08-19T04:08:57;99449.59;;;20.78;58.15
26823;BME280;14852;51.910;8.878;2022-08-19T04:11:30;99449.94;;;20.75;57.87
26823;BME280;14852;51.910;8.878;2022-08-19T04:13:57;99459.97;;;20.72;57.87
26823;BME280;14852;51.910;8.878;2022-08-19T04:16:25;99461.25;;;20.68;58.44
26823;BME280;14852;51.910;8.878;2022-08-19T04:18:59;99466.16;;;20.63;58.49
26823;BME280;14852;51.910;8.878;2022-08-19T04:21:27;99467.28;;;20.60;58.53
26823;BME280;14852;51.910;8.878;2022-08-19T04:23:54;99455.91;;;20.59;58.42
26823;BME280;14852;51.910;8.878;2022-08-19T04:26:29;99458.44;;;20.69;58.06
26823;BME280;14852;51.910;8.878;2022-08-19T04:29:03;99452.88;;;20.72;57.95
26823;BME280;14852;51.910;8.878;2022-08-19T04:31:31;99450.69;;;20.85;57.27
26823;BME280;14852;51.910;8.878;2022-08-19T04:34:00;99450.53;;;20.87;57.46
26823;BME280;14852;51.910;8.878;2022-08-19T04:36:31;99447.56;;;20.90;57.91
26823;BME280;14852;51.910;8.878;2022-08-19T04:39:02;99456.00;;;20.93;57.48
26823;BME280;14852;51.910;8.878;2022-08-19T04:41:28;99457.38;;;20.98;57.91
26823;BME280;14852;51.910;8.878;2022-08-19T04:44:14;99449.81;;;21.03;57.85
26823;BME280;14852;51.910;8.878;2022-08-19T04:46:44;99447.00;;;21.04;57.93
26823;BME280;14852;51.910;8.878;2022-08-19T04:49:10;99450.88;;;21.10;57.86
26823;BME280;14852;51.910;8.878;2022-08-19T04:51:40;99446.75;;;21.15;57.58
26823;BME280;14852;51.910;8.878;2022-08-19T04:54:06;99447.16;;;21.20;57.58
26823;BME280;14852;51.910;8.878;2022-08-19T04:56:32;99446.53;;;21.26;57.71
26823;BME280;14852;51.910;8.878;2022-08-19T04:58:57;99451.22;;;21.33;57.39
26823;BME280;14852;51.910;8.878;2022-08-19T05:01:29;99447.25;;;21.37;57.16
26823;BME280;14852;51.910;8.878;2022-08-19T05:03:56;99451.25;;;21.41;57.27
26823;BME280;14852;51.910;8.878;2022-08-19T05:06:23;99442.13;;;21.35;57.84
26823;BME280;14852;51.910;8.878;2022-08-19T05:08:49;99454.03;;;21.39;57.59
26823;BME280;14852;51.910;8.878;2022-08-19T05:11:25;99458.19;;;21.42;57.95
26823;BME280;14852;51.910;8.878;2022-08-19T05:14:03;99457.66;;;21.38;58.02
26823;BME280;14852;51.910;8.878;2022-08-19T05:16:31;99470.53;;;21.33;57.89
26823;BME280;14852;51.910;8.878;2022-08-19T05:18:57;99461.63;;;21.34;57.90
26823;BME280;14852;51.910;8.878;2022-08-19T05:21:42;99470.91;;;21.46;57.80
26823;BME280;14852;51.910;8.878;2022-08-19T05:24:28;99462.09;;;21.63;57.27
26823;BME280;14852;51.910;8.878;2022-08-19T05:26:58;99454.06;;;21.81;57.33
26823;BME280;14852;51.910;8.878;2022-08-19T05:29:29;99455.97;;;21.97;56.63
26823;BME280;14852;51.910;8.878;2022-08-19T05:32:02;99452.41;;;22.14;56.39
26823;BME280;14852;51.910;8.878;2022-08-19T05:34:31;99447.47;;;22.27;56.44
26823;BME280;14852;51.910;8.878;2022-08-19T05:37:02;99452.13;;;22.33;56.63
26823;BME280;14852;51.910;8.878;2022-08-19T05:39:38;99448.66;;;22.33;56.89
26823;BME280;14852;51.910;8.878;2022-08-19T05:42:08;99449.47;;;22.33;56.78
26823;BME280;14852;51.910;8.878;2022-08-19T05:44:40;99448.50;;;22.43;56.92
26823;BME280;14852;51.910;8.878;2022-08-19T05:47:15;99449.50;;;22.58;56.73
26823;BME280;14852;51.910;8.878;2022-08-19T05:49:54;99456.63;;;22.73;56.19
26823;BME280;14852;51.910;8.878;2022-08-19T05:52:31;99455.34;;;22.78;56.09
26823;BME280;14852;51.910;8.878;2022-08-19T05:55:09;99448.53;;;22.99;55.75
26823;BME280;14852;51.910;8.878;2022-08-19T05:57:42;99447.13;;;23.44;54.53
26823;BME280;14852;51.910;8.878;2022-08-19T06:00:12;99456.22;;;23.66;54.56
26823;BME280;14852;51.910;8.878;2022-08-19T06:02:51;99447.69;;;23.78;54.00
26823;BME280;14852;51.910;8.878;2022-08-19T06:05:17;99447.53;;;23.80;54.31
26823;BME280;14852;51.910;8.878;2022-08-19T06:07:50;99444.50;;;23.91;53.90
26823;BME280;14852;51.910;8.878;2022-08-19T06:10:16;99439.34;;;24.29;53.13
26823;BME280;14852;51.910;8.878;2022-08-19T06:12:44;99433.91;;;24.90;51.96
26823;BME280;14852;51.910;8.878;2022-08-19T06:15:17;99434.56;;;25.59;50.63
26823;BME280;14852;51.910;8.878;2022-08-19T06:17:49;99437.44;;;26.66;48.09
26823;BME280;14852;51.910;8.878;2022-08-19T06:20:15;99438.75;;;27.54;46.74
26823;BME280;14852;51.910;8.878;2022-08-19T06:22:47;99431.94;;;27.92;45.69
26823;BME280;14852;51.910;8.878;2022-08-19T06:25:17;99440.06;;;27.64;46.66
26823;BME280;14852;51.910;8.878;2022-08-19T06:27:46;99442.06;;;27.56;47.48
26823;BME280;14852;51.910;8.878;2022-08-19T06:30:18;99427.19;;;28.35;45.39
26823;BME280;14852;51.910;8.878;2022-08-19T06:32:48;99416.09;;;29.24;43.61
26823;BME280;14852;51.910;8.878;2022-08-19T06:35:17;99416.13;;;29.88;42.46
26823;BME280;14852;51.910;8.878;2022-08-19T06:37:52;99418.94;;;30.45;42.15
26823;BME280;14852;51.910;8.878;2022-08-19T06:40:21;99412.69;;;30.82;40.85
26823;BME280;14852;51.910;8.878;2022-08-19T06:42:49;99416.50;;;30.93;40.80
26823;BME280;14852;51.910;8.878;2022-08-19T06:45:26;99415.56;;;31.12;40.25
26823;BME280;14852;51.910;8.878;2022-08-19T06:47:53;99418.38;;;30.92;40.29
26823;BME280;14852;51.910;8.878;2022-08-19T06:50:27;99423.03;;;30.54;41.73
26823;BME280;14852;51.910;8.878;2022-08-19T06:52:56;99433.53;;;30.55;41.48
26823;BME280;14852;51.910;8.878;2022-08-19T06:55:22;99425.16;;;30.95;40.98
26823;BME280;14852;51.910;8.878;2022-08-19T06:58:09;99437.22;;;31.36;40.44
26823;BME280;14852;51.910;8.878;2022-08-19T07:00:37;99430.47;;;31.70;39.43
26823;BME280;14852;51.910;8.878;2022-08-19T07:03:09;99434.75;;;31.89;39.34
26823;BME280;14852;51.910;8.878;2022-08-19T07:05:47;99444.69;;;31.88;39.41
26823;BME280;14852;51.910;8.878;2022-08-19T07:08:23;99446.53;;;31.51;39.77
26823;BME280;14852;51.910;8.878;2022-08-19T07:11:13;99446.25;;;31.16;42.18
26823;BME280;14852;51.910;8.878;2022-08-19T07:13:45;99448.25;;;30.71;42.10
26823;BME280;14852;51.910;8.878;2022-08-19T07:16:23;99450.94;;;30.40;42.09
26823;BME280;14852;51.910;8.878;2022-08-19T07:18:58;99457.88;;;30.16;42.30
26823;BME280;14852;51.910;8.878;2022-08-19T07:24:06;99467.63;;;30.04;42.49
26823;BME280;14852;51.910;8.878;2022-08-19T07:26:41;99474.44;;;30.44;42.07
26823;BME280;14852;51.910;8.878;2022-08-19T07:29:08;99486.97;;;31.13;40.73
26823;BME280;14852;51.910;8.878;2022-08-19T07:31:34;99478.75;;;31.51;39.39
26823;BME280;14852;51.910;8.878;2022-08-19T07:34:06;99494.84;;;31.51;39.07
26823;BME280;14852;51.910;8.878;2022-08-19T07:39:24;99510.00;;;32.85;37.35
26823;BME280;14852;51.910;8.878;2022-08-19T07:41:50;99491.09;;;33.73;35.75
26823;BME280;14852;51.910;8.878;2022-08-19T07:44:17;99488.94;;;34.39;35.38
26823;BME280;14852;51.910;8.878;2022-08-19T07:46:48;99487.78;;;35.64;33.08
26823;BME280;14852;51.910;8.878;2022-08-19T07:49:16;99485.38;;;35.84;32.82
26823;BME280;14852;51.910;8.878;2022-08-19T07:51:50;99480.22;;;35.82;33.42
26823;BME280;14852;51.910;8.878;2022-08-19T07:54:17;99480.63;;;35.36;33.37
26823;BME280;14852;51.910;8.878;2022-08-19T07:56:42;99480.50;;;34.64;34.83
26823;BME280;14852;51.910;8.878;2022-08-19T07:59:08;99482.91;;;34.20;35.51
26823;BME280;14852;51.910;8.878;2022-08-19T08:01:35;99475.91;;;34.07;35.33
26823;BME280;14852;51.910;8.878;2022-08-19T08:04:01;99479.41;;;33.79;35.67
26823;BME280;14852;51.910;8.878;2022-08-19T08:06:46;99493.81;;;33.27;36.79
26823;BME280;14852;51.910;8.878;2022-08-19T08:09:37;99510.50;;;32.34;38.09
26823;BME280;14852;51.910;8.878;2022-08-19T08:12:16;99505.66;;;31.70;39.02
26823;BME280;14852;51.910;8.878;2022-08-19T08:14:47;99510.88;;;31.40;39.79
26823;BME280;14852;51.910;8.878;2022-08-19T08:17:15;99513.09;;;31.24;39.51
26823;BME280;14852;51.910;8.878;2022-08-19T08:19:43;99519.50;;;31.23;39.30
26823;BME280;14852;51.910;8.878;2022-08-19T08:22:10;99520.06;;;31.32;39.23
26823;BME280;14852;51.910;8.878;2022-08-19T08:25:14;99515.25;;;31.59;38.35
26823;BME280;14852;51.910;8.878;2022-08-19T08:27:43;99517.59;;;31.74;37.96
26823;BME280;14852;51.910;8.878;2022-08-19T08:30:15;99519.63;;;32.63;35.95
26823;BME280;14852;51.910;8.878;2022-08-19T08:32:41;99521.88;;;33.07;35.42
26823;BME280;14852;51.910;8.878;2022-08-19T08:35:10;99514.09;;;34.84;32.27
26823;BME280;14852;51.910;8.878;2022-08-19T08:37:37;99509.66;;;36.22;30.25
26823;BME280;14852;51.910;8.878;2022-08-19T08:45:27;99503.47;;;37.45;28.58
26823;BME280;14852;51.910;8.878;2022-08-19T08:47:58;99500.75;;;37.45;28.66
26823;BME280;14852;51.910;8.878;2022-08-19T08:50:35;99507.28;;;36.53;30.18
26823;BME280;14852;51.910;8.878;2022-08-19T08:53:06;99500.69;;;36.44;30.31
26823;BME280;14852;51.910;8.878;2022-08-19T08:55:34;99498.44;;;35.92;30.96
26823;BME280;14852;51.910;8.878;2022-08-19T08:58:12;99515.31;;;34.65;32.69
26823;BME280;14852;51.910;8.878;2022-08-19T09:00:45;99513.47;;;33.51;34.67
26823;BME280;14852;51.910;8.878;2022-08-19T09:03:22;99510.88;;;33.09;35.22
26823;BME280;14852;51.910;8.878;2022-08-19T09:06:11;99510.91;;;32.79;35.65
26823;BME280;14852;51.910;8.878;2022-08-19T09:12:34;99523.94;;;32.94;36.15
26823;BME280;14852;51.910;8.878;2022-08-19T09:15:10;99520.50;;;33.28;35.22
26823;BME280;14852;51.910;8.878;2022-08-19T09:17:37;99522.28;;;33.34;34.44
26823;BME280;14852;51.910;8.878;2022-08-19T09:22:41;99510.78;;;33.62;34.19
26823;BME280;14852;51.910;8.878;2022-08-19T09:25:12;99502.94;;;33.61;34.29
26823;BME280;14852;51.910;8.878;2022-08-19T09:27:40;99499.16;;;33.73;33.82
26823;BME280;14852;51.910;8.878;2022-08-19T09:30:09;99491.47;;;33.77;33.27
26823;BME280;14852;51.910;8.878;2022-08-19T09:32:35;99496.03;;;33.76;33.56
26823;BME280;14852;51.910;8.878;2022-08-19T09:35:01;99497.53;;;33.72;33.73
26823;BME280;14852;51.910;8.878;2022-08-19T09:37:27;99489.69;;;33.71;33.48
26823;BME280;14852;51.910;8.878;2022-08-19T09:39:53;99489.81;;;33.76;33.29
26823;BME280;14852;51.910;8.878;2022-08-19T09:42:19;99493.69;;;33.80;33.32
26823;BME280;14852;51.910;8.878;2022-08-19T09:44:45;99497.06;;;33.87;33.49
26823;BME280;14852;51.910;8.878;2022-08-19T09:47:12;99506.34;;;33.91;33.28
26823;BME280;14852;51.910;8.878;2022-08-19T09:49:39;99509.59;;;33.93;33.05
26823;BME280;14852;51.910;8.878;2022-08-19T09:52:10;99510.75;;;33.97;33.10
26823;BME280;14852;51.910;8.878;2022-08-19T09:54:38;99518.13;;;34.02;32.39
26823;BME280;14852;51.910;8.878;2022-08-19T09:57:05;99514.28;;;33.98;31.85
26823;BME280;14852;51.910;8.878;2022-08-19T09:59:31;99508.50;;;34.06;32.44
26823;BME280;14852;51.910;8.878;2022-08-19T10:01:56;99508.47;;;34.17;31.79
26823;BME280;14852;51.910;8.878;2022-08-19T10:04:22;99505.44;;;34.26;31.67
26823;BME280;14852;51.910;8.878;2022-08-19T10:06:50;99517.72;;;34.33;31.44
26823;BME280;14852;51.910;8.878;2022-08-19T10:09:17;99514.00;;;34.11;31.30
26823;BME280;14852;51.910;8.878;2022-08-19T10:11:45;99506.59;;;33.78;31.40
26823;BME280;14852;51.910;8.878;2022-08-19T10:14:15;99505.97;;;33.64;31.48
26823;BME280;14852;51.910;8.878;2022-08-19T10:16:42;99499.63;;;33.70;31.72
26823;BME280;14852;51.910;8.878;2022-08-19T10:19:08;99499.88;;;33.92;31.71
26823;BME280;14852;51.910;8.878;2022-08-19T10:21:35;99498.06;;;34.09;30.74
26823;BME280;14852;51.910;8.878;2022-08-19T10:24:04;99494.41;;;34.15;30.82
26823;BME280;14852;51.910;8.878;2022-08-19T10:26:36;99493.22;;;34.23;30.42
26823;BME280;14852;51.910;8.878;2022-08-19T10:29:04;99496.56;;;34.02;30.76
26823;BME280;14852;51.910;8.878;2022-08-19T10:31:33;99491.41;;;34.00;30.75
26823;BME280;14852;51.910;8.878;2022-08-19T10:34:00;99490.72;;;33.93;31.02
26823;BME280;14852;51.910;8.878;2022-08-19T10:36:34;99481.88;;;34.09;30.50
26823;BME280;14852;51.910;8.878;2022-08-19T10:39:05;99480.91;;;34.15;30.61
26823;BME280;14852;51.910;8.878;2022-08-19T10:41:35;99476.91;;;34.18;30.40
26823;BME280;14852;51.910;8.878;2022-08-19T10:44:05;99467.88;;;34.24;30.27
26823;BME280;14852;51.910;8.878;2022-08-19T10:46:35;99477.50;;;34.32;30.51
26823;BME280;14852;51.910;8.878;2022-08-19T10:49:03;99469.44;;;34.48;29.92
26823;BME280;14852;51.910;8.878;2022-08-19T10:51:30;99462.59;;;34.58;30.00
26823;BME280;14852;51.910;8.878;2022-08-19T10:54:15;99465.53;;;34.56;29.74
26823;BME280;14852;51.910;8.878;2022-08-19T10:56:41;99450.69;;;34.42;29.15
26823;BME280;14852;51.910;8.878;2022-08-19T10:59:27;99455.84;;;34.43;29.26
26823;BME280;14852;51.910;8.878;2022-08-19T11:02:00;99447.75;;;34.43;29.22
26823;BME280;14852;51.910;8.878;2022-08-19T11:04:26;99445.22;;;34.37;29.39
26823;BME280;14852;51.910;8.878;2022-08-19T11:06:52;99451.25;;;34.15;29.45
26823;BME280;14852;51.910;8.878;2022-08-19T11:09:21;99447.31;;;34.06;29.48
26823;BME280;14852;51.910;8.878;2022-08-19T11:11:50;99444.72;;;34.11;29.02
26823;BME280;14852;51.910;8.878;2022-08-19T11:14:20;99431.81;;;34.13;28.52
26823;BME280;14852;51.910;8.878;2022-08-19T11:16:48;99432.38;;;34.15;28.55
26823;BME280;14852;51.910;8.878;2022-08-19T11:19:15;99434.00;;;34.16;28.79
26823;BME280;14852;51.910;8.878;2022-08-19T11:21:46;99443.03;;;34.22;29.19
26823;BME280;14852;51.910;8.878;2022-08-19T11:24:25;99439.72;;;34.32;28.86
26823;BME280;14852;51.910;8.878;2022-08-19T11:26:54;99439.38;;;34.28;28.71
26823;BME280;14852;51.910;8.878;2022-08-19T11:29:25;99439.97;;;34.30;28.41
26823;BME280;14852;51.910;8.878;2022-08-19T11:31:51;99433.50;;;34.31;28.75
26823;BME280;14852;51.910;8.878;2022-08-19T11:34:21;99437.50;;;34.29;28.38
26823;BME280;14852;51.910;8.878;2022-08-19T11:36:49;99435.81;;;34.11;28.27
26823;BME280;14852;51.910;8.878;2022-08-19T11:39:18;99433.81;;;34.06;28.35
26823;BME280;14852;51.910;8.878;2022-08-19T11:41:44;99432.53;;;34.09;28.78
26823;BME280;14852;51.910;8.878;2022-08-19T11:44:10;99432.63;;;34.14;28.87
26823;BME280;14852;51.910;8.878;2022-08-19T11:46:37;99430.84;;;34.20;28.13
26823;BME280;14852;51.910;8.878;2022-08-19T11:49:05;99422.69;;;34.14;28.25
26823;BME280;14852;51.910;8.878;2022-08-19T11:51:33;99430.75;;;34.14;28.01
26823;BME280;14852;51.910;8.878;2022-08-19T11:54:00;99428.66;;;34.05;28.17
26823;BME280;14852;51.910;8.878;2022-08-19T11:56:27;99428.00;;;33.98;28.37
26823;BME280;14852;51.910;8.878;2022-08-19T11:58:54;99424.41;;;33.92;28.16
26823;BME280;14852;51.910;8.878;2022-08-19T12:01:24;99417.63;;;33.90;27.81
26823;BME280;14852;51.910;8.878;2022-08-19T12:03:53;99408.22;;;33.92;28.16
26823;BME280;14852;51.910;8.878;2022-08-19T12:06:27;99420.03;;;34.03;28.27
26823;BME280;14852;51.910;8.878;2022-08-19T12:08:58;99421.75;;;34.09;28.19
26823;BME280;14852;51.910;8.878;2022-08-19T12:11:25;99411.00;;;33.97;28.01
26823;BME280;14852;51.910;8.878;2022-08-19T12:13:52;99411.75;;;33.81;27.54
26823;BME280;14852;51.910;8.878;2022-08-19T12:16:23;99415.53;;;33.68;27.68
26823;BME280;14852;51.910;8.878;2022-08-19T12:18:50;99414.84;;;33.61;27.25
26823;BME280;14852;51.910;8.878;2022-08-19T12:21:23;99409.22;;;33.63;27.39
26823;BME280;14852;51.910;8.878;2022-08-19T12:23:55;99409.81;;;33.65;27.87
26823;BME280;14852;51.910;8.878;2022-08-19T12:26:24;99412.34;;;33.71;27.19
26823;BME280;14852;51.910;8.878;2022-08-19T12:28:50;99408.16;;;33.75;27.50
26823;BME280;14852;51.910;8.878;2022-08-19T12:31:16;99405.59;;;33.69;27.05
26823;BME280;14852;51.910;8.878;2022-08-19T12:33:43;99401.59;;;33.60;27.23
26823;BME280;14852;51.910;8.878;2022-08-19T12:36:12;99404.22;;;33.55;27.32
26823;BME280;14852;51.910;8.878;2022-08-19T12:38:39;99406.66;;;33.56;27.41
26823;BME280;14852;51.910;8.878;2022-08-19T12:41:07;99402.09;;;33.57;27.49
26823;BME280;14852;51.910;8.878;2022-08-19T12:43:35;99402.19;;;33.62;27.39
26823;BME280;14852;51.910;8.878;2022-08-19T12:46:02;99390.78;;;33.71;27.34
26823;BME280;14852;51.910;8.878;2022-08-19T12:48:30;99402.88;;;33.69;27.28
26823;BME280;14852;51.910;8.878;2022-08-19T12:50:56;99391.03;;;33.70;27.16
26823;BME280;14852;51.910;8.878;2022-08-19T12:53:22;99399.41;;;33.57;27.44
26823;BME280;14852;51.910;8.878;2022-08-19T12:55:56;99387.06;;;33.61;27.49
26823;BME280;14852;51.910;8.878;2022-08-19T12:58:23;99391.88;;;33.59;26.82
26823;BME280;14852;51.910;8.878;2022-08-19T13:00:49;99378.78;;;33.51;27.10
26823;BME280;14852;51.910;8.878;2022-08-19T13:03:15;99390.84;;;33.48;27.14
26823;BME280;14852;51.910;8.878;2022-08-19T13:05:41;99378.13;;;33.43;27.36
26823;BME280;14852;51.910;8.878;2022-08-19T13:08:07;99384.31;;;33.44;27.40
26823;BME280;14852;51.910;8.878;2022-08-19T13:10:35;99385.50;;;33.36;27.24
26823;BME280;14852;51.910;8.878;2022-08-19T13:13:06;99389.16;;;33.30;27.28
26823;BME280;14852;51.910;8.878;2022-08-19T13:15:38;99382.72;;;33.31;27.51
26823;BME280;14852;51.910;8.878;2022-08-19T13:18:07;99381.97;;;33.36;27.12
26823;BME280;14852;51.910;8.878;2022-08-19T13:20:36;99381.50;;;33.39;27.25
26823;BME280;14852;51.910;8.878;2022-08-19T13:23:03;99385.84;;;33.40;27.22
26823;BME280;14852;51.910;8.878;2022-08-19T13:25:29;99388.41;;;33.35;27.06
26823;BME280;14852;51.910;8.878;2022-08-19T13:27:55;99386.22;;;33.20;27.67
26823;BME280;14852;51.910;8.878;2022-08-19T13:30:22;99385.84;;;33.17;27.44
26823;BME280;14852;51.910;8.878;2022-08-19T13:33:06;99386.09;;;33.15;27.19